Woodville, Florida
Current Conditions -  °F | °C
As of 5:53 AM on Thursday 18 Dec 2014 (Local Time) from KTLH Reporting Station
Few Clouds Few Clouds  
Wind Chill: 39°   Ceiling: Unl
Heat Index: 39°   Visibility: 10mi
Dew Point: 35°   Wind: 3mph
Humidity: 86%   Direction: 330°NNW
Pressure: 30.16"   Gusts: NA
Location:  30.31°N, 84.25°W
Report Text: KTLH 181053Z 33003KT 10SM FEW250 04/02 A3016 RMK AO2 SLP212 FIRST AUGMENTED OBS T00390017 $
Loading
Personal Weather Stations






























Interactive Weather Map New forecast layout! Learn more

10-Day Weather Forecast

Advertisements
Track Severe Weather on mobile